sensor_id;sensor_type;location;lat;lon;timestamp;temperature;humidity
42261;DHT22;27926;48.062;7.474;2023-08-06T00:00:51;16.10;99.90
42261;DHT22;27926;48.062;7.474;2023-08-06T00:03:16;16.10;99.90
42261;DHT22;27926;48.062;7.474;2023-08-06T00:05:43;16.10;99.90
42261;DHT22;27926;48.062;7.474;2023-08-06T00:08:08;16.10;99.90
42261;DHT22;27926;48.062;7.474;2023-08-06T00:10:32;16.10;99.90
42261;DHT22;27926;48.062;7.474;2023-08-06T00:12:57;16.10;99.90
42261;DHT22;27926;48.062;7.474;2023-08-06T00:15:22;16.10;99.90
42261;DHT22;27926;48.062;7.474;2023-08-06T00:17:46;16.00;99.90
42261;DHT22;27926;48.062;7.474;2023-08-06T00:20:11;16.00;99.90
42261;DHT22;27926;48.062;7.474;2023-08-06T00:22:37;15.90;99.90
42261;DHT22;27926;48.062;7.474;2023-08-06T00:25:02;15.90;99.90
42261;DHT22;27926;48.062;7.474;2023-08-06T00:27:27;15.90;99.90
42261;DHT22;27926;48.062;7.474;2023-08-06T00:29:51;15.90;99.90
42261;DHT22;27926;48.062;7.474;2023-08-06T00:32:17;15.90;99.90
42261;DHT22;27926;48.062;7.474;2023-08-06T00:34:42;15.80;99.90
42261;DHT22;27926;48.062;7.474;2023-08-06T00:37:06;15.80;99.90
42261;DHT22;27926;48.062;7.474;2023-08-06T00:39:31;15.70;99.90
42261;DHT22;27926;48.062;7.474;2023-08-06T00:41:55;15.70;99.90
42261;DHT22;27926;48.062;7.474;2023-08-06T00:44:20;15.70;99.90
42261;DHT22;27926;48.062;7.474;2023-08-06T00:46:45;15.70;99.90
42261;DHT22;27926;48.062;7.474;2023-08-06T00:49:09;15.80;99.90
42261;DHT22;27926;48.062;7.474;2023-08-06T00:51:34;15.80;99.90
42261;DHT22;27926;48.062;7.474;2023-08-06T00:53:59;15.90;99.90
42261;DHT22;27926;48.062;7.474;2023-08-06T00:56:27;16.00;99.90
42261;DHT22;27926;48.062;7.474;2023-08-06T00:58:52;16.00;99.90
42261;DHT22;27926;48.062;7.474;2023-08-06T01:01:16;16.10;99.90
42261;DHT22;27926;48.062;7.474;2023-08-06T01:03:41;16.10;99.90
42261;DHT22;27926;48.062;7.474;2023-08-06T01:06:06;16.10;99.90
42261;DHT22;27926;48.062;7.474;2023-08-06T01:14:28;16.10;99.90
42261;DHT22;27926;48.062;7.474;2023-08-06T01:16:55;16.00;99.90
42261;DHT22;27926;48.062;7.474;2023-08-06T01:19:21;16.00;99.90
42261;DHT22;27926;48.062;7.474;2023-08-06T01:21:45;16.00;99.90
42261;DHT22;27926;48.062;7.474;2023-08-06T01:24:10;15.90;99.90
42261;DHT22;27926;48.062;7.474;2023-08-06T01:29:28;15.90;99.90
42261;DHT22;27926;48.062;7.474;2023-08-06T01:31:55;15.90;99.90
42261;DHT22;27926;48.062;7.474;2023-08-06T01:34:25;15.90;99.90
42261;DHT22;27926;48.062;7.474;2023-08-06T01:36:51;16.00;99.90
42261;DHT22;27926;48.062;7.474;2023-08-06T01:39:16;16.00;99.90
42261;DHT22;27926;48.062;7.474;2023-08-06T01:41:41;16.00;99.90
42261;DHT22;27926;48.062;7.474;2023-08-06T01:44:05;16.00;99.90
42261;DHT22;27926;48.062;7.474;2023-08-06T01:46:30;15.90;99.90
42261;DHT22;27926;48.062;7.474;2023-08-06T01:48:55;15.80;99.90
42261;DHT22;27926;48.062;7.474;2023-08-06T01:51:19;15.70;99.90
42261;DHT22;27926;48.062;7.474;2023-08-06T01:53:44;15.60;99.90
42261;DHT22;27926;48.062;7.474;2023-08-06T01:56:08;15.50;99.90
42261;DHT22;27926;48.062;7.474;2023-08-06T01:58:33;15.50;99.90
42261;DHT22;27926;48.062;7.474;2023-08-06T02:00:58;15.40;99.90
42261;DHT22;27926;48.062;7.474;2023-08-06T02:03:22;15.40;99.90
42261;DHT22;27926;48.062;7.474;2023-08-06T02:05:47;15.40;99.90
42261;DHT22;27926;48.062;7.474;2023-08-06T02:08:11;15.40;99.90
42261;DHT22;27926;48.062;7.474;2023-08-06T02:10:36;15.40;99.90
42261;DHT22;27926;48.062;7.474;2023-08-06T02:13:01;15.40;99.90
42261;DHT22;27926;48.062;7.474;2023-08-06T02:15:25;15.50;99.90
42261;DHT22;27926;48.062;7.474;2023-08-06T02:17:50;15.40;99.90
42261;DHT22;27926;48.062;7.474;2023-08-06T02:20:14;15.40;99.90
42261;DHT22;27926;48.062;7.474;2023-08-06T02:22:39;15.40;99.90
42261;DHT22;27926;48.062;7.474;2023-08-06T02:25:04;15.40;99.90
42261;DHT22;27926;48.062;7.474;2023-08-06T02:27:29;15.40;99.90
42261;DHT22;27926;48.062;7.474;2023-08-06T02:29:54;15.40;99.90
42261;DHT22;27926;48.062;7.474;2023-08-06T02:32:18;15.40;99.90
42261;DHT22;27926;48.062;7.474;2023-08-06T02:34:43;15.30;99.90
42261;DHT22;27926;48.062;7.474;2023-08-06T02:37:07;15.30;99.90
42261;DHT22;27926;48.062;7.474;2023-08-06T02:39:32;15.30;99.90
42261;DHT22;27926;48.062;7.474;2023-08-06T02:41:58;15.20;99.90
42261;DHT22;27926;48.062;7.474;2023-08-06T02:44:22;15.10;99.90
42261;DHT22;27926;48.062;7.474;2023-08-06T02:46:47;15.10;99.90
42261;DHT22;27926;48.062;7.474;2023-08-06T02:49:11;15.10;99.90
42261;DHT22;27926;48.062;7.474;2023-08-06T02:51:36;15.00;99.90
42261;DHT22;27926;48.062;7.474;2023-08-06T02:54:01;15.00;99.90
42261;DHT22;27926;48.062;7.474;2023-08-06T02:56:25;14.90;99.90
42261;DHT22;27926;48.062;7.474;2023-08-06T02:58:50;14.90;99.90
42261;DHT22;27926;48.062;7.474;2023-08-06T03:01:15;14.80;99.90
42261;DHT22;27926;48.062;7.474;2023-08-06T03:03:39;14.80;99.90
42261;DHT22;27926;48.062;7.474;2023-08-06T03:06:04;14.70;99.90
42261;DHT22;27926;48.062;7.474;2023-08-06T03:08:29;14.70;99.90
42261;DHT22;27926;48.062;7.474;2023-08-06T03:10:53;14.70;99.90
42261;DHT22;27926;48.062;7.474;2023-08-06T03:13:18;14.60;99.90
42261;DHT22;27926;48.062;7.474;2023-08-06T03:15:51;14.60;99.90
42261;DHT22;27926;48.062;7.474;2023-08-06T03:18:15;14.50;99.90
42261;DHT22;27926;48.062;7.474;2023-08-06T03:20:40;14.40;99.90
42261;DHT22;27926;48.062;7.474;2023-08-06T03:23:04;14.30;99.90
42261;DHT22;27926;48.062;7.474;2023-08-06T03:25:29;14.30;99.90
42261;DHT22;27926;48.062;7.474;2023-08-06T03:27:53;14.30;99.90
42261;DHT22;27926;48.062;7.474;2023-08-06T03:30:18;14.30;99.90
42261;DHT22;27926;48.062;7.474;2023-08-06T03:32:42;14.30;99.90
42261;DHT22;27926;48.062;7.474;2023-08-06T03:35:07;14.30;99.90
42261;DHT22;27926;48.062;7.474;2023-08-06T03:37:32;14.20;99.90
42261;DHT22;27926;48.062;7.474;2023-08-06T03:39:56;14.20;99.90
42261;DHT22;27926;48.062;7.474;2023-08-06T03:42:21;14.20;99.90
42261;DHT22;27926;48.062;7.474;2023-08-06T03:44:46;14.20;99.90
42261;DHT22;27926;48.062;7.474;2023-08-06T03:47:11;14.10;99.90
42261;DHT22;27926;48.062;7.474;2023-08-06T03:49:36;14.00;99.90
42261;DHT22;27926;48.062;7.474;2023-08-06T03:52:01;14.00;99.90
42261;DHT22;27926;48.062;7.474;2023-08-06T03:54:25;14.00;99.90
42261;DHT22;27926;48.062;7.474;2023-08-06T03:56:50;13.90;99.90
42261;DHT22;27926;48.062;7.474;2023-08-06T03:59:15;13.90;99.90
42261;DHT22;27926;48.062;7.474;2023-08-06T04:01:39;13.80;99.90
42261;DHT22;27926;48.062;7.474;2023-08-06T04:04:04;13.90;99.90
42261;DHT22;27926;48.062;7.474;2023-08-06T04:06:28;13.90;99.90
42261;DHT22;27926;48.062;7.474;2023-08-06T04:08:53;13.90;99.90
42261;DHT22;27926;48.062;7.474;2023-08-06T04:11:17;13.90;99.90
42261;DHT22;27926;48.062;7.474;2023-08-06T04:13:43;13.90;99.90
42261;DHT22;27926;48.062;7.474;2023-08-06T04:16:08;13.90;99.90
42261;DHT22;27926;48.062;7.474;2023-08-06T04:18:32;13.80;99.90
42261;DHT22;27926;48.062;7.474;2023-08-06T04:20:57;13.80;99.90
42261;DHT22;27926;48.062;7.474;2023-08-06T04:23:22;13.90;99.90
42261;DHT22;27926;48.062;7.474;2023-08-06T04:25:46;13.80;99.90
42261;DHT22;27926;48.062;7.474;2023-08-06T04:28:11;13.90;99.90
42261;DHT22;27926;48.062;7.474;2023-08-06T04:30:37;13.90;99.90
42261;DHT22;27926;48.062;7.474;2023-08-06T04:33:01;13.90;99.90
42261;DHT22;27926;48.062;7.474;2023-08-06T04:35:26;13.80;99.90
42261;DHT22;27926;48.062;7.474;2023-08-06T04:37:51;13.90;99.90
42261;DHT22;27926;48.062;7.474;2023-08-06T04:40:15;13.80;99.90
42261;DHT22;27926;48.062;7.474;2023-08-06T04:42:40;13.80;99.90
42261;DHT22;27926;48.062;7.474;2023-08-06T04:45:05;13.80;99.90
42261;DHT22;27926;48.062;7.474;2023-08-06T04:47:30;13.80;99.90
42261;DHT22;27926;48.062;7.474;2023-08-06T04:49:54;13.80;99.90
42261;DHT22;27926;48.062;7.474;2023-08-06T04:52:19;13.80;99.90
42261;DHT22;27926;48.062;7.474;2023-08-06T04:54:44;13.80;99.90
42261;DHT22;27926;48.062;7.474;2023-08-06T04:57:08;13.70;99.90
42261;DHT22;27926;48.062;7.474;2023-08-06T04:59:33;13.80;99.90
42261;DHT22;27926;48.062;7.474;2023-08-06T05:01:58;13.80;99.90
42261;DHT22;27926;48.062;7.474;2023-08-06T05:04:22;13.80;99.90
42261;DHT22;27926;48.062;7.474;2023-08-06T05:06:48;13.80;99.90
42261;DHT22;27926;48.062;7.474;2023-08-06T05:09:12;13.90;99.90
42261;DHT22;27926;48.062;7.474;2023-08-06T05:11:37;13.90;99.90
42261;DHT22;27926;48.062;7.474;2023-08-06T05:14:01;13.90;99.90
42261;DHT22;27926;48.062;7.474;2023-08-06T05:16:26;13.90;99.90
42261;DHT22;27926;48.062;7.474;2023-08-06T05:18:51;13.90;99.90
42261;DHT22;27926;48.062;7.474;2023-08-06T05:21:15;13.90;99.90
42261;DHT22;27926;48.062;7.474;2023-08-06T05:23:40;13.90;99.90
42261;DHT22;27926;48.062;7.474;2023-08-06T05:26:05;13.90;99.90
42261;DHT22;27926;48.062;7.474;2023-08-06T05:28:30;13.90;99.90
42261;DHT22;27926;48.062;7.474;2023-08-06T05:30:54;13.90;99.90
42261;DHT22;27926;48.062;7.474;2023-08-06T05:33:19;13.90;99.90
42261;DHT22;27926;48.062;7.474;2023-08-06T05:35:43;13.90;99.90
42261;DHT22;27926;48.062;7.474;2023-08-06T05:38:08;14.00;99.90
42261;DHT22;27926;48.062;7.474;2023-08-06T05:40:34;14.00;99.90
42261;DHT22;27926;48.062;7.474;2023-08-06T05:42:58;13.50;99.90
42261;DHT22;27926;48.062;7.474;2023-08-06T05:45:23;14.10;99.90
42261;DHT22;27926;48.062;7.474;2023-08-06T05:47:48;14.10;99.90
42261;DHT22;27926;48.062;7.474;2023-08-06T05:50:13;14.10;99.90
42261;DHT22;27926;48.062;7.474;2023-08-06T05:52:38;14.10;99.90
42261;DHT22;27926;48.062;7.474;2023-08-06T05:55:02;14.10;99.90
42261;DHT22;27926;48.062;7.474;2023-08-06T05:57:27;14.10;99.90
42261;DHT22;27926;48.062;7.474;2023-08-06T05:59:52;14.00;99.90
42261;DHT22;27926;48.062;7.474;2023-08-06T06:02:16;13.90;99.90
42261;DHT22;27926;48.062;7.474;2023-08-06T06:04:43;14.00;99.90
42261;DHT22;27926;48.062;7.474;2023-08-06T06:07:07;14.00;99.90
42261;DHT22;27926;48.062;7.474;2023-08-06T06:09:32;14.00;99.90
42261;DHT22;27926;48.062;7.474;2023-08-06T06:11:56;14.10;99.90
42261;DHT22;27926;48.062;7.474;2023-08-06T06:14:21;14.10;99.90
42261;DHT22;27926;48.062;7.474;2023-08-06T06:16:46;14.10;99.90
42261;DHT22;27926;48.062;7.474;2023-08-06T06:19:11;14.10;99.90
42261;DHT22;27926;48.062;7.474;2023-08-06T06:21:36;14.10;99.90
42261;DHT22;27926;48.062;7.474;2023-08-06T06:24:02;14.10;99.90
42261;DHT22;27926;48.062;7.474;2023-08-06T06:26:27;14.10;99.90
42261;DHT22;27926;48.062;7.474;2023-08-06T06:28:52;14.20;99.90
42261;DHT22;27926;48.062;7.474;2023-08-06T06:31:17;14.10;99.90
42261;DHT22;27926;48.062;7.474;2023-08-06T06:33:41;14.20;99.90
42261;DHT22;27926;48.062;7.474;2023-08-06T06:36:06;14.20;99.90
42261;DHT22;27926;48.062;7.474;2023-08-06T06:38:31;14.20;99.90
42261;DHT22;27926;48.062;7.474;2023-08-06T06:40:56;14.20;99.90
42261;DHT22;27926;48.062;7.474;2023-08-06T06:43:22;14.20;99.90
42261;DHT22;27926;48.062;7.474;2023-08-06T06:45:46;14.30;99.90
42261;DHT22;27926;48.062;7.474;2023-08-06T06:48:11;14.30;99.90
42261;DHT22;27926;48.062;7.474;2023-08-06T06:50:36;14.40;99.90
42261;DHT22;27926;48.062;7.474;2023-08-06T06:53:00;14.50;99.90
42261;DHT22;27926;48.062;7.474;2023-08-06T06:55:25;14.50;99.90
42261;DHT22;27926;48.062;7.474;2023-08-06T06:57:49;14.50;99.90
42261;DHT22;27926;48.062;7.474;2023-08-06T07:00:14;14.60;99.90
42261;DHT22;27926;48.062;7.474;2023-08-06T07:02:39;14.70;99.90
42261;DHT22;27926;48.062;7.474;2023-08-06T07:05:04;14.80;99.90
42261;DHT22;27926;48.062;7.474;2023-08-06T07:07:28;15.00;99.90
42261;DHT22;27926;48.062;7.474;2023-08-06T07:09:53;15.20;99.90
42261;DHT22;27926;48.062;7.474;2023-08-06T07:12:21;15.40;99.90
42261;DHT22;27926;48.062;7.474;2023-08-06T07:14:46;15.50;99.90
42261;DHT22;27926;48.062;7.474;2023-08-06T07:17:10;15.50;99.90
42261;DHT22;27926;48.062;7.474;2023-08-06T07:19:35;15.70;99.90
42261;DHT22;27926;48.062;7.474;2023-08-06T07:22:00;15.70;99.90
42261;DHT22;27926;48.062;7.474;2023-08-06T07:24:24;15.70;99.90
42261;DHT22;27926;48.062;7.474;2023-08-06T07:26:49;15.70;99.90
42261;DHT22;27926;48.062;7.474;2023-08-06T07:29:13;16.00;99.90
42261;DHT22;27926;48.062;7.474;2023-08-06T07:31:38;16.30;99.90
42261;DHT22;27926;48.062;7.474;2023-08-06T07:34:03;16.40;99.90
42261;DHT22;27926;48.062;7.474;2023-08-06T07:36:27;16.20;99.90
42261;DHT22;27926;48.062;7.474;2023-08-06T07:38:52;16.00;99.90
42261;DHT22;27926;48.062;7.474;2023-08-06T07:41:20;15.80;99.90
42261;DHT22;27926;48.062;7.474;2023-08-06T07:43:44;15.70;99.90
42261;DHT22;27926;48.062;7.474;2023-08-06T07:46:09;15.70;99.90
42261;DHT22;27926;48.062;7.474;2023-08-06T07:48:33;15.60;99.90
42261;DHT22;27926;48.062;7.474;2023-08-06T07:50:58;15.60;99.90
42261;DHT22;27926;48.062;7.474;2023-08-06T07:53:24;15.60;99.90
42261;DHT22;27926;48.062;7.474;2023-08-06T07:55:54;15.50;99.90
42261;DHT22;27926;48.062;7.474;2023-08-06T07:58:22;15.50;99.90
42261;DHT22;27926;48.062;7.474;2023-08-06T08:00:47;15.50;99.90
42261;DHT22;27926;48.062;7.474;2023-08-06T08:03:13;15.40;99.90
42261;DHT22;27926;48.062;7.474;2023-08-06T08:05:38;15.50;99.90
42261;DHT22;27926;48.062;7.474;2023-08-06T08:08:03;15.40;99.90
42261;DHT22;27926;48.062;7.474;2023-08-06T08:10:28;15.40;99.90
42261;DHT22;27926;48.062;7.474;2023-08-06T08:12:52;15.50;99.90
42261;DHT22;27926;48.062;7.474;2023-08-06T08:15:17;15.50;99.90
42261;DHT22;27926;48.062;7.474;2023-08-06T08:17:42;15.60;99.90
42261;DHT22;27926;48.062;7.474;2023-08-06T08:20:07;15.70;99.90
42261;DHT22;27926;48.062;7.474;2023-08-06T08:22:32;16.00;99.90
42261;DHT22;27926;48.062;7.474;2023-08-06T08:24:56;16.20;99.90
42261;DHT22;27926;48.062;7.474;2023-08-06T08:27:21;16.30;99.90
42261;DHT22;27926;48.062;7.474;2023-08-06T08:29:45;16.50;99.90
42261;DHT22;27926;48.062;7.474;2023-08-06T08:32:10;16.60;99.90
42261;DHT22;27926;48.062;7.474;2023-08-06T08:34:35;16.80;99.90
42261;DHT22;27926;48.062;7.474;2023-08-06T08:36:59;17.00;99.90
42261;DHT22;27926;48.062;7.474;2023-08-06T08:39:24;17.20;99.90
42261;DHT22;27926;48.062;7.474;2023-08-06T08:41:49;17.40;99.90
42261;DHT22;27926;48.062;7.474;2023-08-06T08:44:14;17.50;99.90
42261;DHT22;27926;48.062;7.474;2023-08-06T08:46:41;17.50;99.90
42261;DHT22;27926;48.062;7.474;2023-08-06T08:49:06;17.50;99.90
42261;DHT22;27926;48.062;7.474;2023-08-06T08:51:32;17.60;99.90
42261;DHT22;27926;48.062;7.474;2023-08-06T08:53:57;17.70;99.90
42261;DHT22;27926;48.062;7.474;2023-08-06T08:56:22;17.80;99.90
42261;DHT22;27926;48.062;7.474;2023-08-06T08:58:46;17.90;99.90
42261;DHT22;27926;48.062;7.474;2023-08-06T09:01:11;17.90;99.90
42261;DHT22;27926;48.062;7.474;2023-08-06T09:03:36;17.90;99.90
42261;DHT22;27926;48.062;7.474;2023-08-06T09:06:02;17.90;99.90
42261;DHT22;27926;48.062;7.474;2023-08-06T09:08:33;18.00;99.90
42261;DHT22;27926;48.062;7.474;2023-08-06T09:11:01;17.90;99.90
42261;DHT22;27926;48.062;7.474;2023-08-06T09:13:27;18.00;99.90
42261;DHT22;27926;48.062;7.474;2023-08-06T09:15:51;18.00;99.90
42261;DHT22;27926;48.062;7.474;2023-08-06T09:18:34;18.00;99.90
42261;DHT22;27926;48.062;7.474;2023-08-06T09:20:58;17.90;99.90
42261;DHT22;27926;48.062;7.474;2023-08-06T09:23:32;17.90;99.90
42261;DHT22;27926;48.062;7.474;2023-08-06T09:25:58;17.80;99.90
42261;DHT22;27926;48.062;7.474;2023-08-06T09:28:22;17.90;99.90
42261;DHT22;27926;48.062;7.474;2023-08-06T09:30:48;17.90;99.90
42261;DHT22;27926;48.062;7.474;2023-08-06T09:33:18;17.90;99.90
42261;DHT22;27926;48.062;7.474;2023-08-06T09:35:43;18.00;99.90
42261;DHT22;27926;48.062;7.474;2023-08-06T09:38:08;18.00;99.90
42261;DHT22;27926;48.062;7.474;2023-08-06T09:40:34;18.00;99.90
42261;DHT22;27926;48.062;7.474;2023-08-06T09:42:59;18.00;99.90
42261;DHT22;27926;48.062;7.474;2023-08-06T09:45:35;18.00;99.90
42261;DHT22;27926;48.062;7.474;2023-08-06T09:48:07;17.80;99.90
42261;DHT22;27926;48.062;7.474;2023-08-06T09:50:34;17.80;99.90
42261;DHT22;27926;48.062;7.474;2023-08-06T09:53:04;17.80;99.90
42261;DHT22;27926;48.062;7.474;2023-08-06T09:55:29;17.90;99.90
42261;DHT22;27926;48.062;7.474;2023-08-06T09:57:54;17.90;99.90
42261;DHT22;27926;48.062;7.474;2023-08-06T10:00:19;17.90;99.90
42261;DHT22;27926;48.062;7.474;2023-08-06T10:02:44;18.00;99.90
42261;DHT22;27926;48.062;7.474;2023-08-06T10:05:09;18.00;99.90
42261;DHT22;27926;48.062;7.474;2023-08-06T10:07:34;18.00;99.90
42261;DHT22;27926;48.062;7.474;2023-08-06T10:10:00;17.90;99.90
42261;DHT22;27926;48.062;7.474;2023-08-06T10:12:25;17.90;99.90
42261;DHT22;27926;48.062;7.474;2023-08-06T10:14:53;17.90;99.90
42261;DHT22;27926;48.062;7.474;2023-08-06T10:17:20;17.80;99.90
42261;DHT22;27926;48.062;7.474;2023-08-06T10:19:47;17.80;99.90
42261;DHT22;27926;48.062;7.474;2023-08-06T10:22:19;17.80;99.90
42261;DHT22;27926;48.062;7.474;2023-08-06T10:24:57;17.70;99.90
42261;DHT22;27926;48.062;7.474;2023-08-06T10:30:24;17.60;99.90
42261;DHT22;27926;48.062;7.474;2023-08-06T10:33:02;17.60;99.90
42261;DHT22;27926;48.062;7.474;2023-08-06T10:35:33;17.40;99.90
42261;DHT22;27926;48.062;7.474;2023-08-06T10:38:08;17.40;99.90
42261;DHT22;27926;48.062;7.474;2023-08-06T10:40:34;17.40;99.90
42261;DHT22;27926;48.062;7.474;2023-08-06T10:43:03;17.30;99.90
42261;DHT22;27926;48.062;7.474;2023-08-06T10:45:28;17.30;99.90
42261;DHT22;27926;48.062;7.474;2023-08-06T10:47:54;17.30;99.90
42261;DHT22;27926;48.062;7.474;2023-08-06T10:50:20;17.40;99.90
42261;DHT22;27926;48.062;7.474;2023-08-06T10:52:45;17.50;99.90
42261;DHT22;27926;48.062;7.474;2023-08-06T10:55:11;17.50;99.90
42261;DHT22;27926;48.062;7.474;2023-08-06T10:57:36;17.60;99.90
42261;DHT22;27926;48.062;7.474;2023-08-06T11:00:00;17.60;99.90
42261;DHT22;27926;48.062;7.474;2023-08-06T11:02:25;17.60;99.90
42261;DHT22;27926;48.062;7.474;2023-08-06T11:04:50;17.60;99.90
42261;DHT22;27926;48.062;7.474;2023-08-06T11:07:15;17.60;99.90
42261;DHT22;27926;48.062;7.474;2023-08-06T11:09:40;17.60;99.90
42261;DHT22;27926;48.062;7.474;2023-08-06T11:12:09;17.60;99.90
42261;DHT22;27926;48.062;7.474;2023-08-06T11:14:34;17.60;99.90
42261;DHT22;27926;48.062;7.474;2023-08-06T11:16:59;17.70;99.90
42261;DHT22;27926;48.062;7.474;2023-08-06T11:19:23;17.70;99.90
42261;DHT22;27926;48.062;7.474;2023-08-06T11:21:48;17.70;99.90
42261;DHT22;27926;48.062;7.474;2023-08-06T11:24:13;17.70;99.90
42261;DHT22;27926;48.062;7.474;2023-08-06T11:26:38;17.70;99.90
42261;DHT22;27926;48.062;7.474;2023-08-06T11:29:04;17.70;99.90
42261;DHT22;27926;48.062;7.474;2023-08-06T11:31:29;17.80;99.90
42261;DHT22;27926;48.062;7.474;2023-08-06T11:33:54;17.70;99.90
42261;DHT22;27926;48.062;7.474;2023-08-06T11:36:38;17.60;99.90
42261;DHT22;27926;48.062;7.474;2023-08-06T11:39:04;17.50;99.90
42261;DHT22;27926;48.062;7.474;2023-08-06T11:41:32;17.30;99.90
42261;DHT22;27926;48.062;7.474;2023-08-06T11:43:58;17.20;99.90
42261;DHT22;27926;48.062;7.474;2023-08-06T11:46:23;17.20;99.90
42261;DHT22;27926;48.062;7.474;2023-08-06T11:48:55;17.20;99.90
42261;DHT22;27926;48.062;7.474;2023-08-06T11:51:24;17.20;99.90
42261;DHT22;27926;48.062;7.474;2023-08-06T11:53:54;17.30;99.90
42261;DHT22;27926;48.062;7.474;2023-08-06T11:56:19;17.40;99.90
42261;DHT22;27926;48.062;7.474;2023-08-06T11:58:44;17.60;99.90
42261;DHT22;27926;48.062;7.474;2023-08-06T12:01:09;17.90;99.90
42261;DHT22;27926;48.062;7.474;2023-08-06T12:03:39;18.30;99.90
42261;DHT22;27926;48.062;7.474;2023-08-06T12:06:04;18.60;99.90
42261;DHT22;27926;48.062;7.474;2023-08-06T12:08:28;18.70;99.90
42261;DHT22;27926;48.062;7.474;2023-08-06T12:10:53;18.70;99.90
42261;DHT22;27926;48.062;7.474;2023-08-06T12:13:17;18.50;99.90
42261;DHT22;27926;48.062;7.474;2023-08-06T12:15:42;18.40;99.90
42261;DHT22;27926;48.062;7.474;2023-08-06T12:18:07;18.30;99.90
42261;DHT22;27926;48.062;7.474;2023-08-06T12:20:32;18.10;99.90
42261;DHT22;27926;48.062;7.474;2023-08-06T12:22:57;18.10;99.90
42261;DHT22;27926;48.062;7.474;2023-08-06T12:25:21;18.40;99.90
42261;DHT22;27926;48.062;7.474;2023-08-06T12:27:47;18.80;99.90
42261;DHT22;27926;48.062;7.474;2023-08-06T12:30:12;18.80;99.90
42261;DHT22;27926;48.062;7.474;2023-08-06T12:32:37;18.80;99.90
42261;DHT22;27926;48.062;7.474;2023-08-06T12:35:02;18.90;99.90
42261;DHT22;27926;48.062;7.474;2023-08-06T12:37:28;19.10;99.90
42261;DHT22;27926;48.062;7.474;2023-08-06T12:39:53;19.00;99.90
42261;DHT22;27926;48.062;7.474;2023-08-06T12:42:17;19.00;99.90
42261;DHT22;27926;48.062;7.474;2023-08-06T12:44:42;19.00;99.90
42261;DHT22;27926;48.062;7.474;2023-08-06T12:47:07;19.10;99.90
42261;DHT22;27926;48.062;7.474;2023-08-06T12:49:33;19.20;99.90
42261;DHT22;27926;48.062;7.474;2023-08-06T12:51:58;19.50;99.90
42261;DHT22;27926;48.062;7.474;2023-08-06T12:54:24;19.60;99.90
42261;DHT22;27926;48.062;7.474;2023-08-06T12:56:48;19.90;99.90
42261;DHT22;27926;48.062;7.474;2023-08-06T12:59:15;20.00;99.90
42261;DHT22;27926;48.062;7.474;2023-08-06T13:01:41;20.00;99.90
42261;DHT22;27926;48.062;7.474;2023-08-06T13:04:06;20.10;99.70
42261;DHT22;27926;48.062;7.474;2023-08-06T13:06:30;19.90;99.80
42261;DHT22;27926;48.062;7.474;2023-08-06T13:09:00;20.00;99.90
42261;DHT22;27926;48.062;7.474;2023-08-06T13:11:24;20.10;99.30
42261;DHT22;27926;48.062;7.474;2023-08-06T13:13:49;20.10;99.20
42261;DHT22;27926;48.062;7.474;2023-08-06T13:16:13;20.10;99.90
42261;DHT22;27926;48.062;7.474;2023-08-06T13:18:38;20.10;99.90
42261;DHT22;27926;48.062;7.474;2023-08-06T13:21:03;19.90;99.80
42261;DHT22;27926;48.062;7.474;2023-08-06T13:23:27;19.80;99.90
42261;DHT22;27926;48.062;7.474;2023-08-06T13:25:53;20.00;99.90
42261;DHT22;27926;48.062;7.474;2023-08-06T13:28:17;20.10;99.70
42261;DHT22;27926;48.062;7.474;2023-08-06T13:30:42;20.00;99.50
42261;DHT22;27926;48.062;7.474;2023-08-06T13:33:07;19.80;99.90
42261;DHT22;27926;48.062;7.474;2023-08-06T13:35:31;20.00;99.90
42261;DHT22;27926;48.062;7.474;2023-08-06T13:37:56;20.10;99.90
42261;DHT22;27926;48.062;7.474;2023-08-06T13:40:20;20.40;99.90
42261;DHT22;27926;48.062;7.474;2023-08-06T13:42:45;20.60;98.90
42261;DHT22;27926;48.062;7.474;2023-08-06T13:45:10;20.60;98.80
42261;DHT22;27926;48.062;7.474;2023-08-06T13:47:34;20.70;98.80
42261;DHT22;27926;48.062;7.474;2023-08-06T13:49:59;20.70;97.80
42261;DHT22;27926;48.062;7.474;2023-08-06T13:52:26;20.40;99.50
42261;DHT22;27926;48.062;7.474;2023-08-06T13:54:50;20.20;99.50
42261;DHT22;27926;48.062;7.474;2023-08-06T13:57:15;19.90;99.70
42261;DHT22;27926;48.062;7.474;2023-08-06T13:59:41;19.50;99.90
42261;DHT22;27926;48.062;7.474;2023-08-06T14:02:08;19.10;99.90
42261;DHT22;27926;48.062;7.474;2023-08-06T14:04:32;18.90;99.90
42261;DHT22;27926;48.062;7.474;2023-08-06T14:06:57;18.80;99.90
42261;DHT22;27926;48.062;7.474;2023-08-06T14:09:21;18.90;99.90
42261;DHT22;27926;48.062;7.474;2023-08-06T14:11:46;19.30;99.90
42261;DHT22;27926;48.062;7.474;2023-08-06T14:14:11;19.70;99.90
42261;DHT22;27926;48.062;7.474;2023-08-06T14:16:35;20.00;99.30
42261;DHT22;27926;48.062;7.474;2023-08-06T14:19:00;20.00;99.60
42261;DHT22;27926;48.062;7.474;2023-08-06T14:21:25;20.00;99.80
42261;DHT22;27926;48.062;7.474;2023-08-06T14:23:49;20.10;99.90
42261;DHT22;27926;48.062;7.474;2023-08-06T14:26:14;20.40;99.50
42261;DHT22;27926;48.062;7.474;2023-08-06T14:28:39;20.70;98.10
42261;DHT22;27926;48.062;7.474;2023-08-06T14:31:04;20.90;97.30
42261;DHT22;27926;48.062;7.474;2023-08-06T14:33:28;20.70;96.70
42261;DHT22;27926;48.062;7.474;2023-08-06T14:35:53;20.40;97.30
42261;DHT22;27926;48.062;7.474;2023-08-06T14:38:18;19.90;98.30
42261;DHT22;27926;48.062;7.474;2023-08-06T14:40:43;19.70;98.30
42261;DHT22;27926;48.062;7.474;2023-08-06T14:43:09;19.50;99.50
42261;DHT22;27926;48.062;7.474;2023-08-06T14:45:33;19.50;99.80
42261;DHT22;27926;48.062;7.474;2023-08-06T14:48:04;19.40;99.40
42261;DHT22;27926;48.062;7.474;2023-08-06T14:50:28;19.20;99.90
42261;DHT22;27926;48.062;7.474;2023-08-06T14:52:53;18.90;99.80
42261;DHT22;27926;48.062;7.474;2023-08-06T14:55:24;18.60;99.90
42261;DHT22;27926;48.062;7.474;2023-08-06T14:57:49;18.20;99.90
42261;DHT22;27926;48.062;7.474;2023-08-06T15:00:13;17.90;99.90
42261;DHT22;27926;48.062;7.474;2023-08-06T15:02:38;17.80;99.90
42261;DHT22;27926;48.062;7.474;2023-08-06T15:05:02;17.60;99.90
42261;DHT22;27926;48.062;7.474;2023-08-06T15:07:27;17.60;99.90
42261;DHT22;27926;48.062;7.474;2023-08-06T15:09:53;17.40;99.90
42261;DHT22;27926;48.062;7.474;2023-08-06T15:12:20;17.40;99.90
42261;DHT22;27926;48.062;7.474;2023-08-06T15:14:44;17.60;99.90
42261;DHT22;27926;48.062;7.474;2023-08-06T15:17:09;17.80;99.90
42261;DHT22;27926;48.062;7.474;2023-08-06T15:19:33;18.10;99.90
42261;DHT22;27926;48.062;7.474;2023-08-06T15:21:58;18.30;99.90
42261;DHT22;27926;48.062;7.474;2023-08-06T15:24:22;18.70;99.90
42261;DHT22;27926;48.062;7.474;2023-08-06T15:26:47;19.00;99.90
42261;DHT22;27926;48.062;7.474;2023-08-06T15:29:12;17.80;99.90